Time;durP1;ratioP1;P1;durP2;ratioP2;P2;SDS_P1;SDS_P2;PMS_P1;PMS_P2;Temp;Humidity;BMP_temperature;BMP_pressure;BME280_temperature;BME280_humidity;BME280_pressure;Samples;Min_cycle;Max_cycle;Signal;HPM_P1;HPM_P2
2021/03/08 00:00:19;;;;;;;8.13;3.80;;;;;;;-4.73;85.87;99597.75;1710719;81;27720;-69
2021/03/08 00:02:49;;;;;;;22.37;10.93;;;;;;;-4.69;85.85;99597.36;1712437;81;21252;-69
2021/03/08 00:05:17;;;;;;;29.45;11.30;;;;;;;-4.66;85.58;99604.19;1713790;81;21036;-69
2021/03/08 00:07:46;;;;;;;57.55;25.57;;;;;;;-4.68;85.50;99612.22;1711191;81;21153;-69
2021/03/08 00:10:16;;;;;;;32.17;13.95;;;;;;;-4.68;85.42;99610.95;1709424;81;21422;-70
2021/03/08 00:12:45;;;;;;;17.52;8.00;;;;;;;-4.70;85.42;99621.53;1711325;81;21096;-69
2021/03/08 00:15:14;;;;;;;10.05;4.20;;;;;;;-4.67;85.52;99630.52;1711330;81;21131;-69
2021/03/08 00:17:42;;;;;;;10.38;5.87;;;;;;;-4.65;85.64;99639.01;1710307;81;22646;-69
2021/03/08 00:20:14;;;;;;;13.68;5.60;;;;;;;-4.57;86.04;99646.34;1709172;81;21200;-69
2021/03/08 00:22:41;;;;;;;10.15;5.22;;;;;;;-4.50;86.00;99636.67;1711840;81;21403;-69
2021/03/08 00:25:13;;;;;;;7.03;4.45;;;;;;;-4.38;86.15;99620.23;1713799;81;21587;-70
2021/03/08 00:27:40;;;;;;;7.17;3.02;;;;;;;-4.28;86.23;99619.94;1710935;81;21034;-70
2021/03/08 00:30:09;;;;;;;8.00;3.20;;;;;;;-4.20;86.19;99617.44;1712079;81;21163;-70
2021/03/08 00:32:36;;;;;;;8.55;2.98;;;;;;;-4.10;86.20;99620.53;1713609;81;21186;-69
2021/03/08 00:35:08;;;;;;;5.15;2.45;;;;;;;-4.01;86.17;99630.81;1713695;81;21334;-70
2021/03/08 00:37:36;;;;;;;7.25;2.90;;;;;;;-3.95;86.15;99624.92;1710132;81;21210;-70
2021/03/08 00:40:10;;;;;;;6.00;3.08;;;;;;;-3.90;86.23;99624.12;1710728;81;21177;-70
2021/03/08 00:42:39;;;;;;;8.45;2.58;;;;;;;-3.87;86.25;99626.70;1710790;81;21660;-70
2021/03/08 00:45:10;;;;;;;8.35;3.05;;;;;;;-3.85;86.25;99612.27;1710766;81;21160;-70
2021/03/08 00:47:37;;;;;;;9.83;3.22;;;;;;;-3.82;86.23;99609.75;1723266;81;22220;-69
2021/03/08 00:50:08;;;;;;;8.85;3.10;;;;;;;-3.79;86.21;99602.54;1714681;81;21059;-70
2021/03/08 00:52:35;;;;;;;10.90;3.70;;;;;;;-3.76;86.17;99605.55;1713758;81;21166;-69
2021/03/08 00:55:03;;;;;;;6.53;3.20;;;;;;;-3.76;86.08;99603.84;1684407;83;21239;-69
2021/03/08 00:57:30;;;;;;;6.92;3.10;;;;;;;-3.75;86.02;99608.12;1681891;82;21634;-70
2021/03/08 00:59:57;;;;;;;9.25;3.00;;;;;;;-3.74;86.02;99608.97;1684107;83;21429;-70
2021/03/08 01:02:24;;;;;;;4.25;2.35;;;;;;;-3.74;85.95;99614.92;1682761;83;21035;-69
2021/03/08 01:04:51;;;;;;;7.28;3.27;;;;;;;-3.73;85.95;99610.67;1651244;85;21116;-70
2021/03/08 01:07:18;;;;;;;5.37;3.05;;;;;;;-3.73;85.87;99611.52;1685297;83;21668;-70
2021/03/08 01:09:45;;;;;;;6.90;2.72;;;;;;;-3.74;85.82;99616.62;1678523;83;21169;-69
2021/03/08 01:12:13;;;;;;;6.00;3.00;;;;;;;-3.78;85.77;99617.42;1680897;83;21650;-69
2021/03/08 01:14:40;;;;;;;6.70;2.50;;;;;;;-3.82;85.73;99613.57;1673120;84;21700;-69
2021/03/08 01:17:07;;;;;;;4.72;2.55;;;;;;;-3.87;85.69;99603.74;1676807;84;21045;-70
2021/03/08 01:19:34;;;;;;;4.97;2.85;;;;;;;-3.91;85.71;99607.13;1688333;83;21562;-70
2021/03/08 01:22:01;;;;;;;5.05;2.10;;;;;;;-3.93;85.73;99605.39;1679180;84;21290;-69
2021/03/08 01:24:28;;;;;;;3.72;1.85;;;;;;;-3.96;85.76;99608.77;1676053;84;21167;-69
2021/03/08 01:26:55;;;;;;;3.52;2.12;;;;;;;-3.96;85.81;99603.66;1676213;84;21221;-70
2021/03/08 01:29:22;;;;;;;4.47;2.08;;;;;;;-3.94;85.84;99604.55;1674619;84;21703;-69
2021/03/08 01:31:50;;;;;;;6.78;2.52;;;;;;;-3.92;85.89;99613.08;1676123;84;21287;-70
2021/03/08 01:34:16;;;;;;;8.30;3.08;;;;;;;-3.89;85.85;99606.72;1676655;84;21227;-70
2021/03/08 01:36:43;;;;;;;4.30;2.10;;;;;;;-3.85;85.89;99608.45;1672267;84;21664;-70
2021/03/08 01:39:10;;;;;;;3.65;1.95;;;;;;;-3.79;85.91;99604.24;1674246;84;21644;-70
2021/03/08 01:41:37;;;;;;;4.58;1.77;;;;;;;-3.75;85.95;99599.59;1675829;84;21212;-70
2021/03/08 01:44:05;;;;;;;3.95;2.02;;;;;;;-3.68;85.95;99605.19;1677539;84;21238;-70
2021/03/08 01:46:32;;;;;;;4.70;2.17;;;;;;;-3.63;85.92;99609.91;1673074;84;21148;-70
2021/03/08 01:48:59;;;;;;;5.22;2.75;;;;;;;-3.61;85.91;99608.23;1677532;84;22194;-70
2021/03/08 01:51:26;;;;;;;5.12;2.10;;;;;;;-3.54;86.01;99607.42;1674021;84;21594;-70
2021/03/08 01:53:53;;;;;;;3.10;1.70;;;;;;;-3.46;85.83;99618.55;1679649;84;21044;-70
2021/03/08 01:56:21;;;;;;;4.65;1.92;;;;;;;-3.49;85.63;99612.58;1675912;84;21247;-70
2021/03/08 01:58:48;;;;;;;7.58;3.05;;;;;;;-3.52;85.68;99612.13;1679307;84;21207;-69
2021/03/08 02:01:16;;;;;;;5.75;2.10;;;;;;;-3.55;85.52;99605.73;1675622;84;21302;-70
2021/03/08 02:03:43;;;;;;;7.30;2.00;;;;;;;-3.62;85.44;99615.44;1676196;84;21183;-69
2021/03/08 02:06:10;;;;;;;5.12;2.40;;;;;;;-3.70;85.39;99610.69;1692630;83;21605;-70
2021/03/08 02:08:38;;;;;;;5.58;1.77;;;;;;;-3.75;85.45;99612.34;1665998;84;21668;-69
2021/03/08 02:11:05;;;;;;;5.90;3.27;;;;;;;-3.82;85.47;99607.19;1704695;82;21584;-69
2021/03/08 02:14:11;;;;;;;7.28;2.87;;;;;;;-3.97;85.16;99609.63;1702787;83;21290;-70
2021/03/08 02:16:44;;;;;;;7.92;2.50;;;;;;;-4.08;85.29;99615.04;1707553;82;21207;-70
2021/03/08 02:19:39;;;;;;;8.78;2.15;;;;;;;-4.19;85.42;99617.89;1703584;82;21068;-69
2021/03/08 02:22:34;;;;;;;5.95;1.92;;;;;;;-4.25;85.55;99622.94;1658427;84;21268;-70
2021/03/08 02:25:37;;;;;;;11.35;1.57;;;;;;;-4.33;85.57;99621.14;1643320;85;21206;-70
2021/03/08 02:28:43;;;;;;;2.20;1.45;;;;;;;-4.41;85.52;99616.80;1644757;85;21411;-70
2021/03/08 02:31:13;;;;;;;3.58;1.60;;;;;;;-4.63;85.17;99625.88;1662381;84;21242;-70
2021/03/08 02:33:47;;;;;;;6.20;1.52;;;;;;;-4.82;85.14;99628.18;1660680;84;21159;-70
2021/03/08 02:36:27;;;;;;;4.80;1.60;;;;;;;-4.89;85.29;99623.86;1797302;78;22840;-69
2021/03/08 02:39:11;;;;;;;5.58;2.12;;;;;;;-5.02;85.34;99637.25;1770876;80;21036;-70
2021/03/08 02:41:38;;;;;;;6.72;2.37;;;;;;;-5.09;85.42;99632.92;1768883;80;21609;-70
2021/03/08 02:44:13;;;;;;;5.50;3.20;;;;;;;-5.22;85.29;99631.88;1766392;79;21053;-70
2021/03/08 02:46:46;;;;;;;3.62;2.58;;;;;;;-5.32;85.36;99637.26;1764851;80;21640;-71
2021/03/08 02:49:21;;;;;;;7.33;2.90;;;;;;;-5.41;85.30;99635.83;1766256;80;21613;-71
2021/03/08 02:52:10;;;;;;;8.98;1.85;;;;;;;-5.51;85.32;99631.44;1765150;80;20993;-71
2021/03/08 02:54:42;;;;;;;3.08;2.00;;;;;;;-5.55;85.51;99632.20;1764297;80;21387;-69
2021/03/08 02:57:10;;;;;;;3.92;1.80;;;;;;;-5.57;85.64;99640.22;1765064;80;21153;-70
2021/03/08 02:59:48;;;;;;;6.50;1.62;;;;;;;-5.59;85.64;99633.01;1768197;80;21021;-70
2021/03/08 03:02:16;;;;;;;2.92;1.72;;;;;;;-5.60;85.67;99633.81;1767159;80;21069;-71
2021/03/08 03:04:44;;;;;;;4.05;1.82;;;;;;;-5.60;85.73;99632.16;1764408;80;21171;-70
2021/03/08 03:07:14;;;;;;;4.37;2.40;;;;;;;-5.59;85.62;99648.27;1762982;80;21928;-70
2021/03/08 03:09:42;;;;;;;4.78;2.60;;;;;;;-5.60;85.54;99641.45;1762377;79;21029;-71
2021/03/08 03:12:12;;;;;;;14.07;5.72;;;;;;;-5.62;85.61;99649.92;1768829;80;21604;-71
2021/03/08 03:14:41;;;;;;;9.83;5.03;;;;;;;-5.60;85.49;99656.32;1743431;80;22194;-71
2021/03/08 03:17:12;;;;;;;3.85;2.30;;;;;;;-5.59;85.42;99653.36;1768256;80;21222;-70
2021/03/08 03:19:49;;;;;;;11.83;6.25;;;;;;;-5.55;85.47;99665.28;1766886;80;21208;-71
2021/03/08 03:22:23;;;;;;;6.10;2.83;;;;;;;-5.50;85.39;99663.67;1745989;80;21238;-71
2021/03/08 03:24:54;;;;;;;3.92;1.22;;;;;;;-5.52;85.33;99686.53;1769665;79;21187;-71
2021/03/08 03:27:23;;;;;;;1.80;1.10;;;;;;;-5.41;85.79;99682.91;1770770;80;21182;-71
2021/03/08 03:29:55;;;;;;;5.17;1.52;;;;;;;-5.14;86.64;99698.19;1770059;80;21189;-71
2021/03/08 03:32:23;;;;;;;2.40;1.12;;;;;;;-4.81;87.02;99688.50;1768673;80;21223;-71
2021/03/08 03:34:51;;;;;;;4.90;2.00;;;;;;;-4.61;86.81;99682.81;1772841;80;21163;-71
2021/03/08 03:37:22;;;;;;;3.80;2.00;;;;;;;-4.47;86.65;99694.05;1770778;80;21168;-70
2021/03/08 03:39:50;;;;;;;2.85;1.45;;;;;;;-4.33;86.74;99692.52;1772391;80;21044;-71
2021/03/08 03:42:18;;;;;;;5.12;1.60;;;;;;;-4.25;86.53;99683.70;1770567;80;21105;-71
2021/03/08 03:44:46;;;;;;;4.25;1.75;;;;;;;-4.18;86.93;99693.53;1775120;80;21651;-71
2021/03/08 03:47:13;;;;;;;;;;;;;;;-4.11;86.62;99695.34;1775868;80;21076;-71
2021/03/08 03:49:40;;;;;;;5.53;1.77;;;;;;;-4.02;86.99;99706.91;1772331;80;20207;-71
2021/03/08 03:52:09;;;;;;;5.53;2.10;;;;;;;-3.95;86.62;99702.72;1772824;79;21214;-71
2021/03/08 03:54:37;;;;;;;3.65;1.70;;;;;;;-3.92;86.50;99697.25;1769887;80;21681;-71
2021/03/08 03:57:08;;;;;;;4.97;1.95;;;;;;;-3.91;86.50;99699.38;1766616;80;21808;-71
2021/03/08 03:59:42;;;;;;;3.75;1.87;;;;;;;-3.89;86.48;99687.08;1771416;80;21714;-71
2021/03/08 04:02:14;;;;;;;4.50;2.02;;;;;;;-3.86;86.42;99699.86;1771961;80;21115;-71
2021/03/08 04:04:53;;;;;;;4.50;3.00;;;;;;;-3.83;86.46;99694.78;1773242;80;22395;-71
2021/03/08 04:07:21;;;;;;;3.10;1.80;;;;;;;-3.75;86.57;99699.09;1765484;80;21169;-71
2021/03/08 04:09:52;;;;;;;6.42;2.00;;;;;;;-3.69;86.49;99694.08;1766568;80;21614;-71
2021/03/08 04:12:24;;;;;;;7.22;2.70;;;;;;;-3.65;86.50;99700.91;1760568;80;21135;-71
2021/03/08 04:15:02;;;;;;;5.35;2.50;;;;;;;-3.59;86.55;99699.69;1771437;80;21605;-71
2021/03/08 04:17:33;;;;;;;3.87;1.85;;;;;;;-3.55;86.45;99700.16;1766234;79;21137;-71
2021/03/08 04:20:01;;;;;;;6.33;1.77;;;;;;;-3.53;86.43;99706.11;1771618;80;21172;-71
2021/03/08 04:22:32;;;;;;;3.00;1.25;;;;;;;-3.52;86.27;99718.05;1767942;79;21197;-71
2021/03/08 04:25:01;;;;;;;3.87;1.37;;;;;;;-3.55;86.22;99718.03;1771911;80;21628;-71
2021/03/08 04:27:30;;;;;;;3.33;1.70;;;;;;;-3.55;86.33;99723.14;1771946;80;21040;-71
2021/03/08 04:29:58;;;;;;;6.25;1.80;;;;;;;-3.50;86.32;99724.04;1770618;80;21171;-71
2021/03/08 04:32:27;;;;;;;4.10;1.87;;;;;;;-3.48;86.31;99714.67;1764486;80;21165;-71
2021/03/08 04:34:54;;;;;;;3.72;1.75;;;;;;;-3.43;86.38;99724.52;1763125;80;22587;-70
2021/03/08 04:37:22;;;;;;;4.37;2.22;;;;;;;-3.39;86.42;99721.56;1746645;81;21914;-70
2021/03/08 04:39:50;;;;;;;;;;;;;;;-3.38;86.32;99719.03;1745787;81;20967;-71
2021/03/08 04:42:19;;;;;;;7.20;2.95;;;;;;;-3.39;86.26;99713.90;1749557;81;20290;-71
2021/03/08 04:44:48;;;;;;;7.72;3.20;;;;;;;-3.43;86.12;99713.02;1744471;81;21183;-70
2021/03/08 04:49:58;;;;;;;7.45;3.80;;;;;;;-3.54;86.00;99714.62;1776595;79;23268;-69
2021/03/08 04:52:25;;;;;;;6.47;3.00;;;;;;;-3.67;85.94;99722.99;1746831;80;20961;-69
2021/03/08 04:54:54;;;;;;;7.75;3.27;;;;;;;-3.79;85.80;99720.33;1752792;80;21641;-68
2021/03/08 04:57:22;;;;;;;11.08;3.60;;;;;;;-3.90;85.86;99726.16;1748180;81;21697;-68
2021/03/08 04:59:51;;;;;;;28.40;13.25;;;;;;;-3.96;85.95;99723.55;1748017;80;21048;-69
2021/03/08 05:02:23;;;;;;;14.15;6.95;;;;;;;-4.06;85.72;99731.95;1758040;80;21005;-69
2021/03/08 05:04:52;;;;;;;12.82;5.30;;;;;;;-4.20;85.76;99728.34;1752855;80;21012;-70
2021/03/08 05:07:25;;;;;;;9.75;4.17;;;;;;;-4.30;85.81;99729.52;1751452;81;21201;-71
2021/03/08 05:09:55;;;;;;;15.80;5.60;;;;;;;-4.36;85.96;99735.81;1758128;80;22397;-70
2021/03/08 05:12:27;;;;;;;14.18;5.30;;;;;;;-4.41;85.99;99739.99;1749612;80;21613;-70
2021/03/08 05:14:57;;;;;;;18.75;7.92;;;;;;;-4.45;86.02;99737.38;1751793;80;21159;-72
2021/03/08 05:17:25;;;;;;;12.23;6.05;;;;;;;-4.50;86.03;99742.42;1756597;80;21131;-75
2021/03/08 05:19:53;;;;;;;12.88;5.72;;;;;;;-4.58;85.90;99749.95;1751282;80;22404;-69
2021/03/08 05:22:20;;;;;;;10.85;5.58;;;;;;;-4.63;85.92;99745.62;1755127;80;21066;-69
2021/03/08 05:24:52;;;;;;;15.38;7.87;;;;;;;-4.70;85.89;99748.91;1752425;80;21228;-70
2021/03/08 05:27:19;;;;;;;37.80;14.28;;;;;;;-4.76;85.92;99750.56;1752359;80;21186;-70
2021/03/08 05:29:47;;;;;;;27.32;12.90;;;;;;;-4.79;86.01;99750.52;1753049;80;21179;-71
2021/03/08 05:32:30;;;;;;;15.65;8.80;;;;;;;-4.79;86.03;99750.52;1749980;80;21168;-70
2021/03/08 05:34:58;;;;;;;18.62;6.45;;;;;;;-4.85;85.72;99747.84;1752860;80;21202;-69
2021/03/08 05:37:27;;;;;;;15.90;7.05;;;;;;;-4.93;85.46;99750.70;1752063;80;21779;-70
2021/03/08 05:39:59;;;;;;;18.55;6.35;;;;;;;-5.06;85.28;99753.91;1750983;80;21597;-70
2021/03/08 05:42:31;;;;;;;19.20;7.08;;;;;;;-5.17;85.43;99765.17;1754810;80;21200;-70
2021/03/08 05:45:09;;;;;;;18.60;7.90;;;;;;;-5.11;85.94;99771.64;1756315;80;22595;-70
2021/03/08 05:48:22;;;;;;;21.60;10.40;;;;;;;-4.97;85.91;99778.23;1750305;80;21029;-70
2021/03/08 05:51:15;;;;;;;26.52;12.88;;;;;;;-4.84;86.16;99780.15;1718927;81;21454;-69
2021/03/08 05:54:03;;;;;;;26.30;14.35;;;;;;;-4.63;86.31;99783.84;1652061;86;21992;-71
2021/03/08 05:56:51;;;;;;;23.52;12.43;;;;;;;-4.45;86.43;99784.12;1643772;86;21203;-70
2021/03/08 06:00:07;;;;;;;25.50;12.58;;;;;;;-4.25;86.36;99786.10;1651489;85;21428;-69
2021/03/08 06:02:54;;;;;;;23.00;11.90;;;;;;;-4.10;86.36;99795.21;1652337;86;21250;-69
2021/03/08 06:05:45;;;;;;;;;;;;;;;-3.97;86.12;99787.31;1656747;85;21605;-70
2021/03/08 06:09:10;;;;;;;26.42;15.43;;;;;;;-3.97;85.74;99788.16;1643600;85;20340;-70
2021/03/08 06:11:41;;;;;;;25.15;12.85;;;;;;;-3.95;85.67;99794.15;1646559;85;21721;-70
2021/03/08 06:14:10;;;;;;;14.35;8.38;;;;;;;-3.83;85.81;99799.39;1634058;85;21680;-70
2021/03/08 06:16:37;;;;;;;18.32;9.05;;;;;;;-3.77;85.43;99805.41;1639708;85;21289;-70
2021/03/08 06:19:07;;;;;;;22.35;10.00;;;;;;;-3.83;85.08;99804.48;1646788;85;21227;-70
2021/03/08 06:21:35;;;;;;;22.40;11.25;;;;;;;-3.87;85.06;99810.37;1625945;85;21412;-71
2021/03/08 06:24:26;;;;;;;20.45;10.32;;;;;;;-3.83;85.26;99812.14;1641835;85;22419;-70
2021/03/08 06:26:56;;;;;;;29.57;11.38;;;;;;;-3.74;85.39;99809.27;1595986;88;21908;-70
2021/03/08 06:29:23;;;;;;;32.98;11.35;;;;;;;-3.58;85.54;99818.81;1582862;89;21263;-71
2021/03/08 06:31:51;;;;;;;55.92;15.00;;;;;;;-3.45;85.54;99824.47;1664273;85;21589;-71
2021/03/08 06:34:18;;;;;;;42.30;11.35;;;;;;;-3.28;85.57;99823.80;1665523;85;21188;-71
2021/03/08 06:36:46;;;;;;;39.78;11.63;;;;;;;-3.17;85.26;99824.76;1671069;85;21666;-71
2021/03/08 06:39:13;;;;;;;32.48;13.30;;;;;;;-3.03;85.44;99825.75;1642731;85;21414;-71
2021/03/08 06:41:41;;;;;;;;;;;;;;;-2.93;85.18;99830.11;1651255;86;21573;-71
2021/03/08 06:44:09;;;;;;;27.80;12.03;;;;;;;-2.78;85.25;99829.38;1628877;86;20551;-70
2021/03/08 06:46:37;;;;;;;21.12;11.68;;;;;;;-2.65;85.31;99835.45;1646123;85;21652;-71
2021/03/08 06:49:04;;;;;;;25.95;12.88;;;;;;;-2.48;85.37;99835.16;1668174;85;21150;-71
2021/03/08 06:51:32;;;;;;;60.12;19.67;;;;;;;-2.49;84.96;99827.06;1645259;85;21232;-71
2021/03/08 06:53:59;;;;;;;39.15;19.32;;;;;;;-2.49;84.96;99827.06;1655153;84;21279;-70
2021/03/08 06:56:27;;;;;;;48.70;16.20;;;;;;;-2.27;85.33;99848.53;1661081;85;21201;-70
2021/03/08 06:59:14;;;;;;;22.10;9.70;;;;;;;-1.98;85.65;99844.44;1659821;85;21149;-71
2021/03/08 07:01:42;;;;;;;29.23;12.50;;;;;;;-1.66;85.85;99851.83;1670146;84;21172;-71
2021/03/08 07:04:14;;;;;;;;;;;;;;;-1.21;86.07;99859.23;1648810;86;21226;-71
2021/03/08 07:06:41;;;;;;;19.87;10.32;;;;;;;-0.89;85.59;99857.18;1663227;85;20728;-71
2021/03/08 07:09:14;;;;;;;27.25;10.75;;;;;;;-0.53;85.69;99867.04;1666174;85;21159;-70
2021/03/08 07:11:41;;;;;;;29.45;16.20;;;;;;;-0.60;84.96;99875.58;1666944;84;21400;-71
2021/03/08 07:14:23;;;;;;;32.50;17.15;;;;;;;-0.71;84.69;99873.84;1664934;85;21252;-71
2021/03/08 07:16:50;;;;;;;31.57;17.45;;;;;;;-0.84;84.28;99897.78;1630518;86;21193;-70
2021/03/08 07:19:17;;;;;;;18.55;10.20;;;;;;;-1.26;83.49;99917.31;1647903;86;21223;-70
2021/03/08 07:21:50;;;;;;;16.90;9.35;;;;;;;-1.73;83.29;99926.90;1643692;86;21208;-70
2021/03/08 07:24:17;;;;;;;15.83;8.50;;;;;;;-2.02;84.00;99912.63;1650586;86;21225;-70
2021/03/08 07:26:55;;;;;;;17.98;9.03;;;;;;;-1.97;84.52;99907.55;1652166;85;21701;-70
2021/03/08 07:29:24;;;;;;;12.40;6.05;;;;;;;-1.85;84.96;99910.17;1647655;86;22692;-71
2021/03/08 07:31:53;;;;;;;7.87;4.12;;;;;;;-1.66;85.49;99899.19;1648607;86;21682;-71
2021/03/08 07:34:21;;;;;;;11.63;5.47;;;;;;;-1.58;85.32;99897.52;1650510;86;21196;-71
2021/03/08 07:37:00;;;;;;;13.98;5.87;;;;;;;-1.45;85.47;99897.59;1652593;85;21274;-71
2021/03/08 07:39:28;;;;;;;10.82;6.20;;;;;;;-1.37;85.45;99907.02;1670118;84;21764;-71
2021/03/08 07:42:09;;;;;;;12.80;6.05;;;;;;;-1.33;85.21;99913.00;1648879;86;21274;-71
2021/03/08 07:44:49;;;;;;;9.35;4.12;;;;;;;-1.36;85.02;99910.43;1674347;85;21634;-71
2021/03/08 07:47:19;;;;;;;6.22;2.90;;;;;;;-1.24;85.14;99909.19;1652032;86;21212;-70
2021/03/08 07:49:49;;;;;;;7.47;3.08;;;;;;;-1.21;84.41;99916.87;1674538;84;21670;-70
2021/03/08 07:52:19;;;;;;;5.33;2.87;;;;;;;-1.15;84.85;99916.92;1652935;84;21063;-71
2021/03/08 07:55:02;;;;;;;6.40;2.87;;;;;;;-0.92;84.87;99914.85;1650218;85;21780;-71
2021/03/08 07:57:30;;;;;;;5.67;2.75;;;;;;;-0.54;85.03;99912.77;1655349;85;21129;-71
2021/03/08 07:59:57;;;;;;;6.22;3.30;;;;;;;-0.01;86.43;99919.16;1648817;84;21100;-71
2021/03/08 08:02:24;;;;;;;7.28;3.12;;;;;;;0.56;86.44;99916.48;1653542;85;21180;-72
2021/03/08 08:04:51;;;;;;;6.97;4.20;;;;;;;1.03;85.69;99916.67;1653736;85;21670;-72
2021/03/08 08:07:21;;;;;;;10.10;3.85;;;;;;;1.23;84.74;99914.42;1649200;84;21249;-72
2021/03/08 08:09:50;;;;;;;7.50;3.75;;;;;;;1.58;85.08;99915.91;1651092;85;21242;-72
2021/03/08 08:12:23;;;;;;;9.95;4.83;;;;;;;1.86;84.71;99909.66;1658093;84;21068;-72
2021/03/08 08:14:52;;;;;;;8.28;4.65;;;;;;;2.11;84.61;99912.02;1648453;84;21580;-72
2021/03/08 08:17:22;;;;;;;11.60;5.35;;;;;;;2.26;83.94;99910.56;1655454;84;21235;-72
2021/03/08 08:19:50;;;;;;;10.70;6.17;;;;;;;2.15;83.54;99911.11;1648353;85;21756;-72
2021/03/08 08:22:24;;;;;;;9.03;5.55;;;;;;;2.14;83.17;99917.14;1649915;86;21196;-71
2021/03/08 08:24:55;;;;;;;11.48;5.97;;;;;;;2.19;82.97;99907.65;1672068;83;21203;-71
2021/03/08 08:27:25;;;;;;;8.65;4.60;;;;;;;2.34;83.44;99907.47;1655729;84;21195;-71
2021/03/08 08:29:52;;;;;;;5.45;3.77;;;;;;;2.55;83.27;99911.96;1650117;85;21175;-71
2021/03/08 08:32:19;;;;;;;10.05;4.90;;;;;;;2.68;84.00;99915.67;1654185;84;21233;-71
2021/03/08 08:34:50;;;;;;;10.35;5.80;;;;;;;3.11;84.46;99916.87;1667288;85;21244;-71
2021/03/08 08:37:21;;;;;;;10.58;6.10;;;;;;;3.56;84.79;99911.91;1664749;85;21231;-71
2021/03/08 08:39:56;;;;;;;12.30;6.70;;;;;;;3.97;84.51;99919.39;1666148;85;21227;-71
2021/03/08 08:42:29;;;;;;;12.10;6.42;;;;;;;4.36;84.60;99919.56;1671591;85;21164;-71
2021/03/08 08:44:59;;;;;;;11.97;6.78;;;;;;;4.71;84.23;99916.31;1671003;85;22210;-69
2021/03/08 08:47:36;;;;;;;12.10;6.58;;;;;;;4.92;83.65;99916.29;1671796;85;21649;-71
2021/03/08 08:50:09;;;;;;;17.17;7.55;;;;;;;5.24;83.96;99920.78;1663484;85;21022;-71
2021/03/08 08:52:51;;;;;;;11.95;5.72;;;;;;;5.85;84.37;99921.06;1670107;85;21595;-71
2021/03/08 08:55:38;;;;;;;10.48;5.60;;;;;;;6.32;83.70;99919.03;1663971;85;21143;-71
2021/03/08 08:58:27;;;;;;;9.20;6.22;;;;;;;6.75;82.01;99923.06;1666327;85;24496;-71
2021/03/08 09:01:15;;;;;;;8.13;3.42;;;;;;;6.99;81.80;99929.27;1668022;85;21014;-71
2021/03/08 09:03:57;;;;;;;4.58;3.17;;;;;;;6.71;77.64;99930.05;1672946;85;21069;-71
2021/03/08 09:06:51;;;;;;;7.17;3.77;;;;;;;5.14;75.92;99938.23;1668942;85;21152;-71
2021/03/08 09:09:36;;;;;;;5.90;1.40;;;;;;;3.52;75.96;99952.38;1666195;85;21207;-71
2021/03/08 09:12:08;;;;;;;2.67;1.35;;;;;;;1.65;74.54;99951.02;1660233;85;21420;-71
2021/03/08 09:14:53;;;;;;;1.30;0.70;;;;;;;0.92;78.15;99950.58;1666767;85;21662;-71
2021/03/08 09:17:32;;;;;;;1.27;0.70;;;;;;;0.60;77.82;99959.28;1664704;84;21077;-71
2021/03/08 09:20:04;;;;;;;2.15;1.10;;;;;;;0.48;79.55;99974.73;1668356;85;21697;-71
2021/03/08 09:22:34;;;;;;;2.47;0.78;;;;;;;0.58;79.89;99973.84;1669669;85;21212;-71
2021/03/08 09:25:12;;;;;;;3.25;1.10;;;;;;;1.05;80.54;99965.10;1675104;85;21213;-71
2021/03/08 09:28:00;;;;;;;2.87;1.35;;;;;;;1.06;78.19;99962.94;1665744;84;21081;-71
2021/03/08 09:30:32;;;;;;;2.33;1.65;;;;;;;0.85;78.21;99972.05;1664842;85;20952;-71
2021/03/08 09:33:12;;;;;;;3.85;1.95;;;;;;;0.92;79.15;99971.15;1665478;83;21021;-71
2021/03/08 09:35:46;;;;;;;7.78;1.75;;;;;;;0.93;78.37;99975.45;1643981;86;21156;-71
2021/03/08 09:38:23;;;;;;;4.60;1.70;;;;;;;1.04;79.91;99977.98;1665277;85;21281;-71
2021/03/08 09:40:57;;;;;;;4.90;1.67;;;;;;;1.16;78.01;99986.06;1649629;86;21116;-71
2021/03/08 09:43:28;;;;;;;2.58;1.60;;;;;;;1.10;78.57;99985.66;1650342;86;21211;-71
2021/03/08 09:46:04;;;;;;;3.30;1.20;;;;;;;0.91;77.76;99995.16;1649837;86;21140;-70
2021/03/08 09:48:38;;;;;;;2.65;1.50;;;;;;;0.94;79.27;99997.72;1642744;86;21196;-70
2021/03/08 09:51:09;;;;;;;2.95;1.30;;;;;;;0.96;79.42;99997.73;1650697;86;22193;-71
2021/03/08 09:53:40;;;;;;;3.55;1.50;;;;;;;0.66;77.83;99993.95;1647837;86;21049;-73
2021/03/08 09:56:16;;;;;;;4.67;2.08;;;;;;;0.52;78.08;100007.27;1655083;85;21235;-71
2021/03/08 09:58:44;;;;;;;4.58;1.98;;;;;;;0.29;78.56;100009.87;1649297;86;21236;-75
2021/03/08 10:01:18;;;;;;;5.15;2.30;;;;;;;0.16;78.42;100014.14;1650764;86;21025;-68
2021/03/08 10:03:45;;;;;;;5.78;2.00;;;;;;;-0.03;78.90;100018.84;1649102;84;22270;-72
2021/03/08 10:06:28;;;;;;;5.53;2.45;;;;;;;0.24;78.46;100015.86;1648438;86;21222;-71
2021/03/08 10:08:56;;;;;;;5.20;2.08;;;;;;;0.40;77.62;100017.56;1649098;84;21598;-69
2021/03/08 10:11:29;;;;;;;6.25;2.15;;;;;;;0.59;78.83;100019.25;1650819;86;21219;-66
2021/03/08 10:13:57;;;;;;;5.65;3.05;;;;;;;0.88;78.28;100023.45;1652568;86;21179;-67
2021/03/08 10:16:26;;;;;;;;;;;;;;;1.00;77.53;100022.12;1647667;85;21649;-68
2021/03/08 10:18:55;;;;;;;6.00;3.00;;;;;;;1.19;77.47;100028.48;1650699;86;20147;-67
2021/03/08 10:21:23;;;;;;;5.60;2.77;;;;;;;1.21;78.03;100022.91;1652514;86;22481;-66
2021/03/08 10:23:50;;;;;;;7.58;2.98;;;;;;;1.45;77.86;100027.06;1648581;86;21061;-67
2021/03/08 10:26:19;;;;;;;2.42;1.47;;;;;;;1.58;76.35;100030.01;1648956;86;21203;-68
2021/03/08 10:28:50;;;;;;;3.83;1.98;;;;;;;1.73;74.35;100023.90;1667470;85;21705;-71
2021/03/08 10:31:29;;;;;;;6.70;2.20;;;;;;;2.11;75.19;100021.50;1646422;85;22205;-71
2021/03/08 10:34:01;;;;;;;4.45;2.30;;;;;;;2.55;76.67;100026.67;1649018;85;21288;-71
2021/03/08 10:36:33;;;;;;;4.30;1.60;;;;;;;2.57;76.08;100021.07;1666490;85;21197;-71
2021/03/08 10:39:04;;;;;;;5.55;1.95;;;;;;;2.60;76.22;100019.75;1669097;84;21215;-71
2021/03/08 10:41:31;;;;;;;5.65;2.10;;;;;;;2.24;74.58;100024.37;1646838;86;21431;-71
2021/03/08 10:43:59;;;;;;;;;;;;;;;1.96;73.95;100023.73;1637692;86;21204;-71
2021/03/08 10:46:36;;;;;;;6.58;3.20;;;;;;;1.98;74.96;100029.30;1666141;85;20240;-71
2021/03/08 10:49:12;;;;;;;5.60;2.90;;;;;;;2.21;76.01;100029.55;1771754;79;22953;-70
2021/03/08 10:51:40;;;;;;;;;;;;;;;2.48;75.41;100034.06;1752931;80;21065;-70
2021/03/08 10:54:13;;;;;;;5.55;1.72;;;;;;;2.97;76.31;100030.55;1742940;80;22359;-70
2021/03/08 10:56:44;;;;;;;4.87;1.98;;;;;;;3.40;76.71;100026.58;1744248;80;21057;-70
2021/03/08 10:59:24;;;;;;;2.95;1.60;;;;;;;2.94;71.16;100037.44;1742790;80;21056;-70
2021/03/08 11:05:13;;;;;;;2.35;0.88;;;;;;;1.64;68.89;100049.70;1818178;77;22752;-69
2021/03/08 11:07:41;;;;;;;1.12;0.72;;;;;;;1.36;69.76;100049.84;1798322;78;21180;-70
2021/03/08 11:10:09;;;;;;;4.62;0.98;;;;;;;1.14;72.42;100059.80;1809758;78;21209;-70
2021/03/08 11:12:38;;;;;;;5.42;1.00;;;;;;;1.06;71.98;100063.23;1799128;78;20989;-70
2021/03/08 11:15:06;;;;;;;4.10;0.80;;;;;;;1.15;72.24;100066.23;1793159;78;20974;-70
2021/03/08 11:17:40;;;;;;;3.98;1.17;;;;;;;0.58;70.63;100071.48;1805231;77;21096;-70
2021/03/08 11:20:15;;;;;;;3.02;0.90;;;;;;;0.54;73.95;100071.07;1797228;78;21191;-70
2021/03/08 11:22:58;;;;;;;3.98;1.00;;;;;;;0.76;72.62;100074.91;1810300;78;22247;-69
2021/03/08 11:25:33;;;;;;;2.70;1.47;;;;;;;0.76;72.83;100071.05;1747245;80;21606;-71
2021/03/08 11:28:05;;;;;;;2.85;1.40;;;;;;;0.99;72.25;100062.84;1767635;80;21100;-69
2021/03/08 11:30:49;;;;;;;4.53;2.00;;;;;;;1.44;72.71;100067.39;1796336;78;24076;-69
2021/03/08 11:33:17;;;;;;;3.35;1.50;;;;;;;1.73;74.22;100059.94;1771633;79;21205;-70
2021/03/08 11:35:53;;;;;;;2.80;1.32;;;;;;;1.93;72.09;100065.84;1768475;80;21267;-70
2021/03/08 11:38:25;;;;;;;5.28;1.95;;;;;;;1.86;73.51;100065.45;1771246;79;21016;-70
2021/03/08 11:40:54;;;;;;;4.83;1.90;;;;;;;2.04;72.89;100067.47;1765822;79;21725;-70
2021/03/08 11:43:24;;;;;;;3.25;1.40;;;;;;;2.04;73.40;100067.47;1774034;80;21082;-71
2021/03/08 11:45:52;;;;;;;4.00;1.62;;;;;;;1.84;69.41;100073.60;1780187;79;21064;-71
2021/03/08 11:48:24;;;;;;;4.03;2.00;;;;;;;1.66;70.54;100058.28;1770421;80;21425;-71
2021/03/08 11:50:54;;;;;;;7.85;1.98;;;;;;;1.43;72.14;100060.55;1772701;80;21068;-71
2021/03/08 11:53:21;;;;;;;4.20;1.72;;;;;;;1.31;73.02;100067.02;1773196;80;21002;-72
2021/03/08 11:55:48;;;;;;;3.58;1.42;;;;;;;1.04;72.45;100064.13;1772298;80;21545;-72
2021/03/08 11:58:22;;;;;;;4.10;1.65;;;;;;;1.22;72.43;100061.91;1769457;79;21160;-72
2021/03/08 12:00:49;;;;;;;4.45;1.82;;;;;;;0.95;71.06;100062.41;1770427;80;21604;-71
2021/03/08 12:03:16;;;;;;;3.60;2.10;;;;;;;0.95;72.56;100070.56;1769979;80;21220;-71